Time;durP1;ratioP1;P1;durP2;ratioP2;P2;SDS_P1;SDS_P2;PMS_P1;PMS_P2;Temp;Humidity;BMP_temperature;BMP_pressure;BME280_temperature;BME280_humidity;BME280_pressure;Samples;Min_cycle;Max_cycle;Signal;HPM_P1;HPM_P2
2022/03/21 00:01:28;;;;;;;9.17;8.27;;;;;;;;;;5049354;28;20198;-68
2022/03/21 00:04:09;;;;;;;8.10;7.40;;;;;;;;;;5064191;28;20607;-68
2022/03/21 00:06:40;;;;;;;8.33;7.53;;;;;;;;;;5063563;28;20650;-67
2022/03/21 00:09:10;;;;;;;9.53;8.57;;;;;;;;;;5048481;28;20214;-68
2022/03/21 00:11:43;;;;;;;8.17;7.37;;;;;;;;;;5066608;28;20332;-68
2022/03/21 00:14:15;;;;;;;8.33;7.47;;;;;;;;;;5068067;28;20186;-68
2022/03/21 00:16:43;;;;;;;8.27;7.47;;;;;;;;;;5063555;28;20197;-67
2022/03/21 00:19:14;;;;;;;8.47;7.67;;;;;;;;;;5051508;28;20232;-68
2022/03/21 00:21:46;;;;;;;8.23;7.43;;;;;;;;;;5068083;28;20287;-69
2022/03/21 00:24:16;;;;;;;8.00;7.20;;;;;;;;;;5067669;28;20247;-67
2022/03/21 00:26:46;;;;;;;8.53;7.83;;;;;;;;;;5064545;28;20266;-68
2022/03/21 00:29:19;;;;;;;8.23;7.43;;;;;;;;;;5072895;28;20202;-67
2022/03/21 00:31:51;;;;;;;7.33;6.63;;;;;;;;;;5065653;28;20773;-67
2022/03/21 00:34:23;;;;;;;7.80;7.10;;;;;;;;;;5068421;28;20439;-67
2022/03/21 00:36:54;;;;;;;8.03;7.23;;;;;;;;;;5067655;28;20251;-67
2022/03/21 00:39:22;;;;;;;8.87;8.07;;;;;;;;;;5069262;28;20582;-67
2022/03/21 00:41:52;;;;;;;8.20;7.40;;;;;;;;;;5067259;28;20198;-67
2022/03/21 00:44:21;;;;;;;8.60;7.80;;;;;;;;;;5075655;28;20238;-67
2022/03/21 00:46:49;;;;;;;8.07;7.27;;;;;;;;;;5065044;28;20205;-67
2022/03/21 00:49:19;;;;;;;8.23;7.47;;;;;;;;;;5067056;28;20194;-67
2022/03/21 00:51:48;;;;;;;8.47;7.70;;;;;;;;;;5064927;28;20237;-67
2022/03/21 00:54:20;;;;;;;7.90;7.10;;;;;;;;;;5083132;28;20189;-67
2022/03/21 00:56:58;;;;;;;8.27;7.40;;;;;;;;;;5050689;28;20189;-68
2022/03/21 00:59:29;;;;;;;8.30;7.50;;;;;;;;;;5059649;28;20189;-69
2022/03/21 01:01:58;;;;;;;8.03;6.97;;;;;;;;;;5048471;28;20212;-68
2022/03/21 01:04:32;;;;;;;7.67;6.97;;;;;;;;;;5057265;28;20263;-67
2022/03/21 01:07:03;;;;;;;7.10;6.40;;;;;;;;;;5075435;28;20197;-67
2022/03/21 01:09:47;;;;;;;8.07;7.37;;;;;;;;;;5036100;28;20225;-66
2022/03/21 01:12:18;;;;;;;7.90;7.20;;;;;;;;;;5066915;28;20248;-68
2022/03/21 01:14:49;;;;;;;8.90;8.00;;;;;;;;;;5062653;28;27114;-68
2022/03/21 01:17:21;;;;;;;7.60;7.00;;;;;;;;;;5067009;28;20213;-67
2022/03/21 01:19:53;;;;;;;8.33;7.53;;;;;;;;;;5067131;28;20186;-67
2022/03/21 01:22:24;;;;;;;8.00;7.20;;;;;;;;;;5041636;28;20228;-67
2022/03/21 01:24:56;;;;;;;7.57;6.87;;;;;;;;;;5066189;28;20201;-67
2022/03/21 01:27:29;;;;;;;7.90;7.10;;;;;;;;;;5060795;28;20221;-68
2022/03/21 01:30:05;;;;;;;7.50;6.83;;;;;;;;;;5050072;28;20578;-68
2022/03/21 01:32:36;;;;;;;7.43;6.80;;;;;;;;;;5064125;28;20240;-67
2022/03/21 01:35:08;;;;;;;7.87;7.13;;;;;;;;;;5048773;28;20546;-68
2022/03/21 01:37:51;;;;;;;7.43;6.73;;;;;;;;;;5069910;28;20668;-67
2022/03/21 01:40:21;;;;;;;8.03;7.33;;;;;;;;;;5076388;28;20221;-67
2022/03/21 01:42:52;;;;;;;8.40;7.60;;;;;;;;;;5067135;28;20255;-67
2022/03/21 01:45:26;;;;;;;7.47;6.77;;;;;;;;;;5062922;28;20229;-67
2022/03/21 01:47:56;;;;;;;7.13;6.53;;;;;;;;;;5069274;28;20192;-67
2022/03/21 01:50:27;;;;;;;7.77;7.07;;;;;;;;;;5069742;28;20205;-68
2022/03/21 01:55:54;;;;;;;7.83;7.13;;;;;;;;;;5068364;28;20666;-67
2022/03/21 01:58:25;;;;;;;8.03;7.30;;;;;;;;;;5072531;28;20212;-67
2022/03/21 02:00:58;;;;;;;7.50;6.80;;;;;;;;;;5079618;28;20196;-67
2022/03/21 02:03:34;;;;;;;8.60;7.70;;;;;;;;;;5050747;28;20220;-69
2022/03/21 02:06:02;;;;;;;8.20;7.40;;;;;;;;;;5066556;28;20209;-68
2022/03/21 02:08:32;;;;;;;8.37;7.50;;;;;;;;;;5062310;28;20205;-68
2022/03/21 02:11:05;;;;;;;8.23;7.43;;;;;;;;;;5068586;28;20220;-67
2022/03/21 02:13:35;;;;;;;8.13;7.43;;;;;;;;;;5058758;28;20197;-67
2022/03/21 02:16:06;;;;;;;7.80;7.00;;;;;;;;;;5076251;28;20213;-68
2022/03/21 02:18:40;;;;;;;7.47;6.77;;;;;;;;;;5071249;28;20223;-67
2022/03/21 02:21:16;;;;;;;7.80;7.10;;;;;;;;;;5052714;28;20197;-68
2022/03/21 02:23:56;;;;;;;8.37;7.57;;;;;;;;;;5070513;28;20216;-69
2022/03/21 02:26:28;;;;;;;8.10;7.30;;;;;;;;;;5052994;28;20212;-67
2022/03/21 02:29:01;;;;;;;7.80;7.10;;;;;;;;;;5055205;28;20224;-67
2022/03/21 02:31:35;;;;;;;7.80;7.10;;;;;;;;;;5055090;28;20213;-68
2022/03/21 02:34:05;;;;;;;7.57;6.87;;;;;;;;;;5043720;28;20198;-68
2022/03/21 02:36:36;;;;;;;7.77;7.00;;;;;;;;;;5073214;28;20186;-67
2022/03/21 02:39:09;;;;;;;8.67;7.87;;;;;;;;;;5049074;28;20217;-68
2022/03/21 02:41:38;;;;;;;7.50;6.80;;;;;;;;;;5069013;28;20635;-68
2022/03/21 02:44:07;;;;;;;7.57;6.87;;;;;;;;;;5066019;28;20230;-68
2022/03/21 02:46:37;;;;;;;7.90;7.20;;;;;;;;;;5067627;28;20549;-68
2022/03/21 02:49:09;;;;;;;7.77;7.07;;;;;;;;;;5085206;28;20190;-68
2022/03/21 02:51:41;;;;;;;7.23;6.53;;;;;;;;;;5066733;28;20237;-68
2022/03/21 02:54:10;;;;;;;7.57;6.87;;;;;;;;;;5053507;28;20197;-68
2022/03/21 02:56:47;;;;;;;7.57;6.90;;;;;;;;;;5073594;28;21039;-68
2022/03/21 02:59:16;;;;;;;7.83;6.90;;;;;;;;;;5066013;28;20210;-68
2022/03/21 03:01:53;;;;;;;7.83;7.13;;;;;;;;;;5051116;28;20201;-67
2022/03/21 03:04:30;;;;;;;7.40;6.77;;;;;;;;;;5064033;28;20216;-67
2022/03/21 03:07:03;;;;;;;7.73;6.97;;;;;;;;;;5051842;28;20206;-68
2022/03/21 03:09:35;;;;;;;7.60;6.80;;;;;;;;;;5075544;28;20673;-67
2022/03/21 03:12:06;;;;;;;7.93;7.13;;;;;;;;;;5069260;28;20205;-68
2022/03/21 03:14:39;;;;;;;7.27;6.67;;;;;;;;;;5065570;28;20197;-67
2022/03/21 03:17:09;;;;;;;7.27;6.57;;;;;;;;;;5051976;28;20186;-69
2022/03/21 03:19:41;;;;;;;7.33;6.53;;;;;;;;;;5071015;28;20189;-67
2022/03/21 03:22:15;;;;;;;7.13;6.43;;;;;;;;;;5068753;28;20201;-67
2022/03/21 03:24:47;;;;;;;6.53;5.93;;;;;;;;;;5057920;28;20200;-67
2022/03/21 03:27:18;;;;;;;7.57;6.87;;;;;;;;;;5073991;28;20213;-67
2022/03/21 03:29:46;;;;;;;7.93;7.13;;;;;;;;;;5060325;28;20593;-68
2022/03/21 03:32:15;;;;;;;7.50;6.07;;;;;;;;;;5070738;28;20225;-67
2022/03/21 03:34:45;;;;;;;7.67;6.93;;;;;;;;;;5068848;28;20525;-67
2022/03/21 03:37:17;;;;;;;7.67;6.93;;;;;;;;;;5051385;28;20194;-68
2022/03/21 03:39:47;;;;;;;8.00;7.30;;;;;;;;;;5071593;28;20212;-68
2022/03/21 03:42:17;;;;;;;6.57;5.97;;;;;;;;;;5084409;28;20682;-68
2022/03/21 03:44:48;;;;;;;7.07;6.47;;;;;;;;;;5066165;28;20726;-68
2022/03/21 03:47:20;;;;;;;7.40;6.80;;;;;;;;;;5064774;28;20210;-69
2022/03/21 03:49:50;;;;;;;6.70;6.10;;;;;;;;;;5055913;28;20209;-67
2022/03/21 03:52:24;;;;;;;7.03;6.43;;;;;;;;;;5066138;28;20234;-68
2022/03/21 03:54:57;;;;;;;7.67;6.87;;;;;;;;;;5067670;28;20190;-67
2022/03/21 03:57:30;;;;;;;6.87;6.20;;;;;;;;;;5068536;28;20182;-68
2022/03/21 03:59:59;;;;;;;7.40;6.70;;;;;;;;;;5071415;28;20618;-68
2022/03/21 04:03:44;;;;;;;7.03;6.43;;;;;;;;;;5063452;28;20197;-67
2022/03/21 04:05:22;;;;;;;6.30;5.70;;;;;;;;;;5057896;28;20202;-67
2022/03/21 04:07:51;;;;;;;6.90;6.20;;;;;;;;;;5068293;28;20204;-67
2022/03/21 04:10:22;;;;;;;6.47;5.87;;;;;;;;;;5051195;28;20205;-67
2022/03/21 04:12:50;;;;;;;7.40;6.03;;;;;;;;;;5049857;28;20982;-67
2022/03/21 04:15:18;;;;;;;7.37;6.67;;;;;;;;;;5047806;28;20212;-68
2022/03/21 04:17:47;;;;;;;7.10;6.50;;;;;;;;;;5068396;28;20205;-67
2022/03/21 04:20:23;;;;;;;7.10;6.50;;;;;;;;;;5053778;28;20285;-68
2022/03/21 04:22:54;;;;;;;7.37;6.67;;;;;;;;;;5067930;28;20200;-67
2022/03/21 04:25:25;;;;;;;6.53;5.93;;;;;;;;;;5067989;28;20198;-67
2022/03/21 04:28:01;;;;;;;6.50;5.80;;;;;;;;;;5065458;28;20662;-67
2022/03/21 04:30:31;;;;;;;6.47;5.87;;;;;;;;;;5079789;28;20209;-67
2022/03/21 04:33:03;;;;;;;6.13;5.53;;;;;;;;;;5066929;28;20237;-68
2022/03/21 04:35:34;;;;;;;6.47;5.87;;;;;;;;;;5060757;28;20185;-66
2022/03/21 04:38:17;;;;;;;6.60;6.00;;;;;;;;;;5067691;28;20221;-67
2022/03/21 04:40:49;;;;;;;6.10;5.53;;;;;;;;;;5063562;28;20205;-67
2022/03/21 04:43:21;;;;;;;6.67;6.07;;;;;;;;;;5082555;28;20182;-68
2022/03/21 04:45:51;;;;;;;6.83;6.23;;;;;;;;;;5066704;28;20224;-67
2022/03/21 04:48:21;;;;;;;6.17;5.57;;;;;;;;;;5068080;28;20571;-69
2022/03/21 04:50:53;;;;;;;6.83;6.13;;;;;;;;;;5063599;28;20213;-67
2022/03/21 04:53:23;;;;;;;5.87;5.27;;;;;;;;;;5066394;28;20218;-67
2022/03/21 04:55:52;;;;;;;7.00;6.10;;;;;;;;;;5074547;28;20201;-68
2022/03/21 04:58:21;;;;;;;5.90;5.40;;;;;;;;;;5067676;28;20193;-67
2022/03/21 05:00:52;;;;;;;6.63;5.60;;;;;;;;;;5065990;28;20182;-67
2022/03/21 05:03:22;;;;;;;7.30;5.83;;;;;;;;;;5065165;28;20204;-67
2022/03/21 05:06:07;;;;;;;5.80;5.30;;;;;;;;;;5067467;28;20225;-67
2022/03/21 05:08:40;;;;;;;6.07;5.47;;;;;;;;;;5074022;28;20577;-67
2022/03/21 05:11:09;;;;;;;5.97;5.47;;;;;;;;;;5067001;28;20233;-68
2022/03/21 05:13:51;;;;;;;5.90;5.33;;;;;;;;;;5047718;28;20271;-68
2022/03/21 05:16:20;;;;;;;6.27;5.67;;;;;;;;;;5069206;28;20638;-68
2022/03/21 05:18:49;;;;;;;6.03;5.37;;;;;;;;;;5068303;28;20244;-68
2022/03/21 05:21:20;;;;;;;6.47;5.90;;;;;;;;;;5066537;28;20203;-68
2022/03/21 05:32:26;;;;;;;5.70;5.20;;;;;;;;;;5073534;28;20214;-67
2022/03/21 05:38:11;;;;;;;5.90;5.27;;;;;;;;;;5066319;28;20210;-66
2022/03/21 05:40:44;;;;;;;5.37;4.87;;;;;;;;;;5072421;28;20212;-68
2022/03/21 05:43:15;;;;;;;5.37;4.87;;;;;;;;;;5066390;28;20235;-66
2022/03/21 05:45:45;;;;;;;5.20;4.70;;;;;;;;;;5071002;28;20224;-67
2022/03/21 05:51:02;;;;;;;6.20;5.33;;;;;;;;;;5067720;28;20202;-68
2022/03/21 05:53:32;;;;;;;6.03;4.90;;;;;;;;;;5070380;28;20286;-67
2022/03/21 05:56:10;;;;;;;5.13;4.70;;;;;;;;;;5084073;28;20193;-67
2022/03/21 05:58:42;;;;;;;5.50;5.00;;;;;;;;;;5061591;28;20195;-66
2022/03/21 06:01:11;;;;;;;4.83;4.43;;;;;;;;;;5072409;28;20189;-67
2022/03/21 06:03:48;;;;;;;4.80;4.30;;;;;;;;;;5050039;28;20280;-66
2022/03/21 06:06:21;;;;;;;5.60;4.77;;;;;;;;;;5071851;28;20197;-67
2022/03/21 06:08:51;;;;;;;4.80;4.40;;;;;;;;;;5069622;28;20223;-66
2022/03/21 06:11:22;;;;;;;4.73;4.33;;;;;;;;;;5057057;28;20193;-67
2022/03/21 06:13:54;;;;;;;5.47;4.90;;;;;;;;;;5070081;28;20570;-67
2022/03/21 06:16:25;;;;;;;5.73;4.97;;;;;;;;;;5076320;28;20656;-67
2022/03/21 06:19:05;;;;;;;6.50;4.90;;;;;;;;;;5064157;28;20788;-68
2022/03/21 06:21:33;;;;;;;7.00;5.50;;;;;;;;;;5050127;28;20209;-67
2022/03/21 06:24:03;;;;;;;10.30;5.50;;;;;;;;;;5052291;28;20190;-67
2022/03/21 06:26:34;;;;;;;9.23;5.93;;;;;;;;;;5063823;28;20209;-67
2022/03/21 06:29:06;;;;;;;7.23;5.63;;;;;;;;;;5068498;28;20190;-68
2022/03/21 06:31:37;;;;;;;8.97;6.20;;;;;;;;;;5069935;28;20189;-67
2022/03/21 06:34:09;;;;;;;8.07;5.53;;;;;;;;;;5050615;28;20193;-66
2022/03/21 06:36:41;;;;;;;10.50;6.23;;;;;;;;;;5066932;28;20644;-68
2022/03/21 06:39:12;;;;;;;13.23;6.13;;;;;;;;;;5066647;28;20202;-69
2022/03/21 06:41:51;;;;;;;8.87;6.23;;;;;;;;;;5068407;28;20273;-66
2022/03/21 06:44:21;;;;;;;10.70;6.60;;;;;;;;;;5069586;28;20237;-66
2022/03/21 06:46:51;;;;;;;9.20;6.73;;;;;;;;;;5069948;28;20198;-66
2022/03/21 06:49:22;;;;;;;9.60;6.37;;;;;;;;;;5071469;28;20197;-66
2022/03/21 06:51:51;;;;;;;9.83;6.27;;;;;;;;;;5067159;28;20206;-70
2022/03/21 06:54:22;;;;;;;8.77;5.97;;;;;;;;;;5053108;28;20202;-69
2022/03/21 06:56:50;;;;;;;9.20;5.70;;;;;;;;;;5068529;28;20797;-65
2022/03/21 06:59:20;;;;;;;8.37;5.80;;;;;;;;;;5066015;28;20203;-67
2022/03/21 07:01:47;;;;;;;9.27;6.10;;;;;;;;;;5049493;28;20186;-70
2022/03/21 07:04:20;;;;;;;10.77;5.93;;;;;;;;;;5064492;28;20213;-69
2022/03/21 07:06:51;;;;;;;8.70;6.10;;;;;;;;;;5063104;28;20186;-69
2022/03/21 07:09:21;;;;;;;8.33;5.47;;;;;;;;;;5066103;28;20202;-68
2022/03/21 07:11:50;;;;;;;7.90;5.80;;;;;;;;;;5068065;28;20186;-70
2022/03/21 07:14:21;;;;;;;7.47;5.03;;;;;;;;;;5070084;28;20205;-69
2022/03/21 07:16:52;;;;;;;6.87;5.00;;;;;;;;;;5063358;28;20214;-69
2022/03/21 07:19:21;;;;;;;10.57;5.50;;;;;;;;;;5067311;28;20221;-70
2022/03/21 07:21:48;;;;;;;9.63;5.37;;;;;;;;;;5047672;28;20201;-70
2022/03/21 07:24:20;;;;;;;7.33;4.97;;;;;;;;;;5067708;28;20206;-68
2022/03/21 07:26:48;;;;;;;7.63;4.93;;;;;;;;;;5063713;28;20201;-67
2022/03/21 07:29:20;;;;;;;10.30;5.53;;;;;;;;;;5064820;28;20202;-68
2022/03/21 07:31:50;;;;;;;113.13;25.17;;;;;;;;;;5068002;28;20201;-68
2022/03/21 07:34:21;;;;;;;81.30;21.20;;;;;;;;;;5058998;28;20886;-72
2022/03/21 07:36:53;;;;;;;57.97;16.83;;;;;;;;;;5073404;28;20201;-68
2022/03/21 07:39:24;;;;;;;60.80;16.90;;;;;;;;;;5071118;28;20208;-69
2022/03/21 07:41:59;;;;;;;44.40;13.97;;;;;;;;;;5065578;28;20193;-65
2022/03/21 07:47:21;;;;;;;25.13;11.57;;;;;;;;;;5075282;28;20204;-66
2022/03/21 07:49:51;;;;;;;27.50;10.77;;;;;;;;;;5072140;28;20190;-65
2022/03/21 07:52:33;;;;;;;17.83;10.67;;;;;;;;;;5066134;28;20224;-66
2022/03/21 07:55:05;;;;;;;16.03;10.87;;;;;;;;;;5076127;28;20197;-66
2022/03/21 07:57:36;;;;;;;19.50;10.93;;;;;;;;;;5061045;28;20200;-66
2022/03/21 08:00:11;;;;;;;18.40;11.20;;;;;;;;;;5058035;28;20193;-69
2022/03/21 08:02:45;;;;;;;18.00;11.47;;;;;;;;;;5059275;28;20193;-69
2022/03/21 08:05:14;;;;;;;16.83;11.20;;;;;;;;;;5050301;28;20201;-66
2022/03/21 08:07:55;;;;;;;15.57;11.53;;;;;;;;;;5075539;28;20797;-67
2022/03/21 08:10:26;;;;;;;15.20;11.67;;;;;;;;;;5076958;28;20189;-65
2022/03/21 08:12:57;;;;;;;16.77;11.63;;;;;;;;;;5078643;28;20213;-69
2022/03/21 08:15:30;;;;;;;16.30;11.47;;;;;;;;;;5073436;28;20205;-66
2022/03/21 08:18:06;;;;;;;13.43;11.90;;;;;;;;;;5075659;28;20191;-68
2022/03/21 08:20:39;;;;;;;16.80;12.57;;;;;;;;;;5069293;28;21418;-67
2022/03/21 08:23:12;;;;;;;14.83;11.33;;;;;;;;;;5058781;28;20205;-67
2022/03/21 08:25:46;;;;;;;15.87;11.30;;;;;;;;;;5057885;28;20206;-68
2022/03/21 08:28:14;;;;;;;12.40;11.00;;;;;;;;;;5062745;28;20263;-68
2022/03/21 08:30:51;;;;;;;15.03;11.23;;;;;;;;;;5062990;28;20233;-68
2022/03/21 08:33:24;;;;;;;12.83;10.37;;;;;;;;;;5047542;28;20233;-68
2022/03/21 08:35:54;;;;;;;12.03;9.33;;;;;;;;;;5064493;28;20202;-69
2022/03/21 08:38:29;;;;;;;11.97;8.93;;;;;;;;;;5064804;28;20216;-70
2022/03/21 08:40:59;;;;;;;9.90;8.30;;;;;;;;;;5049717;28;20213;-69
2022/03/21 08:43:29;;;;;;;13.80;8.07;;;;;;;;;;5075974;28;20197;-69
2022/03/21 08:45:58;;;;;;;8.67;6.83;;;;;;;;;;5067938;28;20241;-70
2022/03/21 08:51:14;;;;;;;6.90;5.83;;;;;;;;;;5067712;28;20840;-67
2022/03/21 08:53:46;;;;;;;7.93;6.07;;;;;;;;;;5075539;28;20216;-66
2022/03/21 08:56:17;;;;;;;6.23;5.50;;;;;;;;;;5072257;28;20205;-66
2022/03/21 08:58:46;;;;;;;7.60;5.00;;;;;;;;;;5067450;28;20197;-64
2022/03/21 09:01:16;;;;;;;7.07;5.10;;;;;;;;;;5072346;28;20300;-69
2022/03/21 09:03:47;;;;;;;6.77;4.80;;;;;;;;;;5069370;28;20221;-70
2022/03/21 09:06:22;;;;;;;6.57;5.13;;;;;;;;;;5058948;28;20290;-68
2022/03/21 09:08:51;;;;;;;5.73;4.37;;;;;;;;;;5054423;28;20232;-69
2022/03/21 09:11:23;;;;;;;7.63;4.70;;;;;;;;;;5067623;28;20194;-67
2022/03/21 09:13:52;;;;;;;6.50;4.50;;;;;;;;;;5075956;28;20221;-66
2022/03/21 09:16:23;;;;;;;5.10;4.00;;;;;;;;;;5073978;28;20205;-67
2022/03/21 09:18:51;;;;;;;5.37;4.10;;;;;;;;;;5072182;28;20197;-67
2022/03/21 09:21:23;;;;;;;5.80;4.17;;;;;;;;;;5070173;28;20200;-66
2022/03/21 09:23:56;;;;;;;4.63;3.87;;;;;;;;;;5073453;28;20193;-65
2022/03/21 09:26:28;;;;;;;6.70;4.67;;;;;;;;;;5056776;28;20290;-66
2022/03/21 09:29:03;;;;;;;7.00;4.53;;;;;;;;;;5074448;28;20211;-67
2022/03/21 09:31:36;;;;;;;4.80;3.80;;;;;;;;;;5092811;28;20189;-69
2022/03/21 09:34:10;;;;;;;4.60;4.03;;;;;;;;;;5077315;28;20224;-69
2022/03/21 09:36:42;;;;;;;6.93;4.20;;;;;;;;;;5073488;28;20276;-69
2022/03/21 09:39:17;;;;;;;5.90;3.90;;;;;;;;;;5072738;28;20201;-69
2022/03/21 09:41:47;;;;;;;7.63;4.03;;;;;;;;;;5079371;28;20301;-70
2022/03/21 09:44:19;;;;;;;5.80;3.80;;;;;;;;;;5076155;28;20240;-71
2022/03/21 09:46:47;;;;;;;5.33;3.83;;;;;;;;;;5069462;28;20247;-70
2022/03/21 09:49:21;;;;;;;5.33;4.03;;;;;;;;;;5073549;28;20688;-67
2022/03/21 09:52:00;;;;;;;7.27;3.90;;;;;;;;;;5072434;28;20654;-66
2022/03/21 09:54:44;;;;;;;6.00;3.50;;;;;;;;;;5071533;28;20236;-66
2022/03/21 09:57:19;;;;;;;4.50;3.70;;;;;;;;;;5074346;28;20315;-71
2022/03/21 09:59:52;;;;;;;5.20;3.70;;;;;;;;;;5071362;28;20200;-69
2022/03/21 10:02:24;;;;;;;4.37;3.60;;;;;;;;;;5075112;28;20674;-68
2022/03/21 10:04:56;;;;;;;4.57;3.33;;;;;;;;;;5070480;28;20606;-68
2022/03/21 10:07:34;;;;;;;4.93;4.13;;;;;;;;;;5075964;28;20193;-66
2022/03/21 10:10:12;;;;;;;6.73;4.07;;;;;;;;;;5076300;28;20197;-66
2022/03/21 10:12:42;;;;;;;4.57;3.70;;;;;;;;;;5074754;28;20712;-66
2022/03/21 10:15:15;;;;;;;7.10;3.43;;;;;;;;;;5072229;28;20206;-68
2022/03/21 10:18:05;;;;;;;6.30;4.10;;;;;;;;;;5074785;28;20193;-67
2022/03/21 10:20:41;;;;;;;5.83;4.70;;;;;;;;;;5057223;28;20194;-67
2022/03/21 10:23:27;;;;;;;6.37;4.60;;;;;;;;;;5059663;28;20240;-68
2022/03/21 10:26:27;;;;;;;4.77;4.27;;;;;;;;;;5073603;28;20186;-66
2022/03/21 10:29:14;;;;;;;7.33;4.83;;;;;;;;;;5062770;28;20229;-66
2022/03/21 10:31:52;;;;;;;6.57;5.33;;;;;;;;;;5076139;28;20644;-66
2022/03/21 10:34:30;;;;;;;6.93;5.40;;;;;;;;;;5050866;28;20223;-66
2022/03/21 10:37:01;;;;;;;6.83;5.70;;;;;;;;;;5078600;28;20193;-65
2022/03/21 10:39:35;;;;;;;8.03;6.40;;;;;;;;;;5056269;28;20217;-65
2022/03/21 10:42:09;;;;;;;8.60;6.07;;;;;;;;;;5062904;28;20184;-66
2022/03/21 10:44:39;;;;;;;7.73;6.47;;;;;;;;;;5073079;28;20199;-65
2022/03/21 10:47:15;;;;;;;8.23;6.73;;;;;;;;;;5078676;28;20206;-67
2022/03/21 10:50:04;;;;;;;8.27;6.63;;;;;;;;;;5078562;28;20215;-67
2022/03/21 10:52:36;;;;;;;8.73;6.70;;;;;;;;;;5056137;28;20228;-69
2022/03/21 10:55:05;;;;;;;7.70;6.90;;;;;;;;;;5060257;28;20875;-69
2022/03/21 10:57:38;;;;;;;7.40;6.70;;;;;;;;;;5078449;28;20268;-69
2022/03/21 11:00:22;;;;;;;9.77;7.40;;;;;;;;;;5077920;28;20209;-66
2022/03/21 11:03:13;;;;;;;9.97;6.70;;;;;;;;;;5074956;28;20221;-65
2022/03/21 11:05:54;;;;;;;7.20;6.50;;;;;;;;;;5064026;28;20841;-66
2022/03/21 11:08:29;;;;;;;11.13;10.10;;;;;;;;;;5075040;28;20214;-65
2022/03/21 11:11:02;;;;;;;13.03;11.63;;;;;;;;;;5077162;28;20196;-65
2022/03/21 11:13:39;;;;;;;12.57;11.27;;;;;;;;;;5058672;28;20351;-64
2022/03/21 11:16:07;;;;;;;15.70;11.87;;;;;;;;;;5074082;28;20221;-68
2022/03/21 11:18:38;;;;;;;15.60;11.97;;;;;;;;;;5075249;28;20664;-68
2022/03/21 11:21:11;;;;;;;13.47;11.17;;;;;;;;;;5075270;28;20186;-64
2022/03/21 11:23:44;;;;;;;14.27;11.27;;;;;;;;;;5082337;28;20201;-64
2022/03/21 11:26:25;;;;;;;14.40;12.40;;;;;;;;;;5077069;28;20235;-67
2022/03/21 11:29:11;;;;;;;12.37;11.17;;;;;;;;;;5079463;28;20266;-67
2022/03/21 11:32:02;;;;;;;13.73;11.10;;;;;;;;;;5079442;28;20791;-67
2022/03/21 11:34:51;;;;;;;13.83;11.17;;;;;;;;;;5072941;28;20748;-67
2022/03/21 11:37:38;;;;;;;12.77;11.20;;;;;;;;;;5075077;28;20188;-63
2022/03/21 11:40:31;;;;;;;11.27;10.10;;;;;;;;;;5076748;28;20296;-64
2022/03/21 11:43:17;;;;;;;12.77;11.47;;;;;;;;;;5079515;28;20693;-65
2022/03/21 11:45:54;;;;;;;11.93;10.73;;;;;;;;;;5074396;28;20268;-67
2022/03/21 11:48:35;;;;;;;13.73;11.60;;;;;;;;;;5048358;28;20216;-68
2022/03/21 11:51:15;;;;;;;13.63;12.10;;;;;;;;;;5069783;28;20209;-69
2022/03/21 11:53:53;;;;;;;12.30;11.00;;;;;;;;;;5077314;28;20198;-68
2022/03/21 11:56:45;;;;;;;15.70;11.97;;;;;;;;;;5052512;28;20198;-64
2022/03/21 11:59:47;;;;;;;11.90;10.80;;;;;;;;;;5072560;28;20201;-64
2022/03/21 12:02:17;;;;;;;13.30;11.00;;;;;;;;;;4952795;28;20226;-64
2022/03/21 12:05:09;;;;;;;14.03;10.77;;;;;;;;;;4980137;28;20216;-64
2022/03/21 12:07:42;;;;;;;15.60;11.53;;;;;;;;;;5073356;28;20206;-68
2022/03/21 12:10:45;;;;;;;12.43;9.90;;;;;;;;;;5076054;28;20282;-65
2022/03/21 12:13:40;;;;;;;12.97;10.90;;;;;;;;;;5075712;28;20193;-65
2022/03/21 12:16:18;;;;;;;12.77;10.03;;;;;;;;;;5052923;28;20692;-65
2022/03/21 12:19:03;;;;;;;12.63;10.43;;;;;;;;;;5066647;28;20212;-66
2022/03/21 12:21:32;;;;;;;12.23;10.73;;;;;;;;;;5075842;28;20850;-68
2022/03/21 12:24:13;;;;;;;12.07;10.13;;;;;;;;;;5079079;28;20197;-68
2022/03/21 12:26:55;;;;;;;12.40;10.47;;;;;;;;;;5056343;28;20212;-68
2022/03/21 12:29:32;;;;;;;12.10;9.90;;;;;;;;;;5077244;28;20562;-68
2022/03/21 12:32:25;;;;;;;14.47;10.60;;;;;;;;;;5043300;28;20215;-68
2022/03/21 12:34:56;;;;;;;13.10;10.87;;;;;;;;;;5072704;28;20225;-68
2022/03/21 12:37:48;;;;;;;13.40;11.73;;;;;;;;;;5056115;28;20205;-67
2022/03/21 12:40:22;;;;;;;13.07;11.13;;;;;;;;;;5073230;28;20221;-65
2022/03/21 12:42:59;;;;;;;11.67;10.17;;;;;;;;;;5073182;28;20630;-65
2022/03/21 12:45:38;;;;;;;10.30;9.30;;;;;;;;;;5069788;28;20325;-65
2022/03/21 12:48:09;;;;;;;12.13;9.53;;;;;;;;;;5065165;28;20200;-65
2022/03/21 12:50:51;;;;;;;9.67;8.00;;;;;;;;;;5065885;28;20218;-64
2022/03/21 12:53:22;;;;;;;11.27;8.73;;;;;;;;;;5056087;28;20265;-65
2022/03/21 12:56:08;;;;;;;9.93;8.10;;;;;;;;;;5070155;28;20651;-69
2022/03/21 12:58:47;;;;;;;9.33;8.33;;;;;;;;;;5071240;28;20228;-72
2022/03/21 13:01:20;;;;;;;10.90;8.43;;;;;;;;;;5077183;28;20200;-66
2022/03/21 13:10:32;;;;;;;15.97;8.27;;;;;;;;;;5073276;28;20217;-67
2022/03/21 13:13:05;;;;;;;8.13;7.33;;;;;;;;;;5078201;28;20196;-71
2022/03/21 13:15:40;;;;;;;10.20;7.03;;;;;;;;;;5070459;28;20847;-68
2022/03/21 13:18:18;;;;;;;7.03;6.33;;;;;;;;;;5053255;28;20209;-68
2022/03/21 13:20:51;;;;;;;12.83;6.60;;;;;;;;;;5074208;28;20234;-71
2022/03/21 13:23:22;;;;;;;8.40;7.17;;;;;;;;;;5059228;28;20209;-71
2022/03/21 13:25:55;;;;;;;7.70;6.47;;;;;;;;;;5057669;28;20198;-71
2022/03/21 13:28:33;;;;;;;6.90;6.30;;;;;;;;;;5071781;28;20205;-70
2022/03/21 13:31:09;;;;;;;7.27;5.97;;;;;;;;;;5058162;28;20189;-71
2022/03/21 13:33:40;;;;;;;9.67;6.37;;;;;;;;;;5072611;28;20891;-69
2022/03/21 13:36:15;;;;;;;6.50;5.63;;;;;;;;;;5053859;28;20679;-69
2022/03/21 13:38:48;;;;;;;11.80;6.63;;;;;;;;;;5054641;28;21026;-69
2022/03/21 13:41:21;;;;;;;7.07;6.13;;;;;;;;;;5072245;28;20220;-69
2022/03/21 13:44:05;;;;;;;9.47;5.90;;;;;;;;;;5073231;28;20202;-69
2022/03/21 13:46:37;;;;;;;8.53;6.07;;;;;;;;;;5064085;28;20437;-67
2022/03/21 13:49:07;;;;;;;7.93;5.97;;;;;;;;;;5075620;28;20626;-67
2022/03/21 13:51:49;;;;;;;6.67;5.63;;;;;;;;;;5066680;28;20297;-66
2022/03/21 13:54:20;;;;;;;5.70;5.17;;;;;;;;;;5072588;28;20221;-68
2022/03/21 13:56:53;;;;;;;5.67;4.97;;;;;;;;;;5053124;28;20205;-65
2022/03/21 13:59:23;;;;;;;6.90;5.60;;;;;;;;;;5073311;28;20202;-68
2022/03/21 14:01:56;;;;;;;6.03;5.43;;;;;;;;;;5066883;28;20255;-70
2022/03/21 14:04:28;;;;;;;6.37;5.47;;;;;;;;;;5061825;28;20261;-68
2022/03/21 14:07:03;;;;;;;8.20;5.40;;;;;;;;;;5076938;28;20213;-69
2022/03/21 14:09:34;;;;;;;8.73;5.73;;;;;;;;;;5073916;28;20211;-69
2022/03/21 14:12:10;;;;;;;6.20;5.60;;;;;;;;;;5078327;28;20205;-70
2022/03/21 14:18:04;;;;;;;7.87;5.77;;;;;;;;;;5079249;28;20528;-67
2022/03/21 14:20:34;;;;;;;9.60;5.70;;;;;;;;;;5077691;28;20209;-68
2022/03/21 14:23:04;;;;;;;5.93;5.43;;;;;;;;;;5078773;28;20197;-68
2022/03/21 14:28:23;;;;;;;6.67;6.00;;;;;;;;;;5066981;28;20208;-65
2022/03/21 14:30:52;;;;;;;5.87;5.27;;;;;;;;;;5070270;28;20274;-70
2022/03/21 14:33:22;;;;;;;6.40;5.60;;;;;;;;;;5076021;28;20202;-70
2022/03/21 14:35:53;;;;;;;6.27;5.67;;;;;;;;;;5077190;28;20210;-69
2022/03/21 14:38:25;;;;;;;8.50;7.80;;;;;;;;;;5064890;28;20281;-70
2022/03/21 14:40:55;;;;;;;11.80;8.13;;;;;;;;;;5040440;28;20670;-69
2022/03/21 14:43:25;;;;;;;9.40;8.00;;;;;;;;;;5075161;28;20734;-70
2022/03/21 14:45:59;;;;;;;8.33;7.53;;;;;;;;;;5075431;28;20237;-68
2022/03/21 14:48:41;;;;;;;8.47;7.57;;;;;;;;;;5058599;28;20197;-67
2022/03/21 14:51:14;;;;;;;8.87;7.60;;;;;;;;;;5077448;28;20194;-69
2022/03/21 14:53:43;;;;;;;8.87;7.63;;;;;;;;;;5073000;28;20209;-69
2022/03/21 14:56:15;;;;;;;7.83;7.03;;;;;;;;;;5074369;28;20719;-69
2022/03/21 14:58:44;;;;;;;8.63;7.00;;;;;;;;;;5035883;28;20205;-69
2022/03/21 15:01:15;;;;;;;7.33;6.57;;;;;;;;;;5079019;28;20209;-67
2022/03/21 15:03:46;;;;;;;7.93;5.93;;;;;;;;;;5076003;28;20554;-67
2022/03/21 15:06:18;;;;;;;9.73;6.10;;;;;;;;;;5077072;28;20247;-68
2022/03/21 15:08:49;;;;;;;8.77;6.17;;;;;;;;;;5053173;28;20193;-70
2022/03/21 15:11:25;;;;;;;7.70;5.77;;;;;;;;;;5074606;28;20529;-66
2022/03/21 15:14:07;;;;;;;7.17;5.50;;;;;;;;;;5073371;28;20197;-65
2022/03/21 15:16:40;;;;;;;6.03;5.33;;;;;;;;;;5073329;28;20225;-69
2022/03/21 15:19:14;;;;;;;5.70;5.20;;;;;;;;;;5077291;28;20250;-69
2022/03/21 15:21:47;;;;;;;9.30;5.03;;;;;;;;;;5070266;28;20211;-66
2022/03/21 15:24:18;;;;;;;5.57;4.97;;;;;;;;;;5071959;28;20206;-66
2022/03/21 15:26:48;;;;;;;6.67;5.00;;;;;;;;;;5076940;28;20193;-70
2022/03/21 15:29:20;;;;;;;5.43;4.93;;;;;;;;;;5071930;28;20249;-68
2022/03/21 15:31:51;;;;;;;10.43;5.00;;;;;;;;;;5075854;28;20209;-67
2022/03/21 15:34:21;;;;;;;8.97;4.07;;;;;;;;;;5073019;28;20189;-65
2022/03/21 15:42:36;;;;;;;7.23;4.90;;;;;;;;;;5069071;28;20209;-70
2022/03/21 15:45:05;;;;;;;5.80;4.87;;;;;;;;;;5080710;28;20201;-70
2022/03/21 15:47:36;;;;;;;4.70;4.30;;;;;;;;;;5074951;28;20248;-70
2022/03/21 15:50:07;;;;;;;4.90;4.40;;;;;;;;;;5070931;28;20214;-65
2022/03/21 15:52:39;;;;;;;5.30;4.77;;;;;;;;;;5048608;28;20685;-65
2022/03/21 15:55:12;;;;;;;14.87;5.33;;;;;;;;;;5046390;28;20281;-67
2022/03/21 15:57:40;;;;;;;8.70;4.93;;;;;;;;;;5077025;28;20205;-66